createdAt,value
2023-05-08T00:01:31.291Z,2.30
2023-05-08T00:03:58.664Z,1.90
2023-05-08T00:06:27.594Z,2.00
2023-05-08T00:08:55.632Z,2.28
2023-05-08T00:11:22.593Z,2.87
2023-05-08T00:13:49.629Z,2.55
2023-05-08T00:16:16.863Z,2.15
2023-05-08T00:18:43.764Z,2.33
2023-05-08T00:21:10.670Z,2.12
2023-05-08T00:23:37.623Z,2.47
2023-05-08T00:26:04.671Z,1.98
2023-05-08T00:28:32.008Z,2.10
2023-05-08T00:31:02.447Z,2.25
2023-05-08T00:33:29.617Z,2.10
2023-05-08T00:36:04.151Z,2.40
2023-05-08T00:38:35.075Z,2.00
2023-05-08T00:41:03.082Z,2.40
2023-05-08T00:43:30.164Z,2.35
2023-05-08T00:45:59.785Z,2.47
2023-05-08T00:48:30.661Z,2.40
2023-05-08T00:50:59.101Z,2.55
2023-05-08T00:53:27.353Z,2.33
2023-05-08T00:55:54.461Z,2.35
2023-05-08T00:58:23.389Z,2.58
2023-05-08T01:00:51.520Z,2.67
2023-05-08T01:03:18.803Z,2.78
2023-05-08T01:05:46.293Z,2.72
2023-05-08T01:08:13.516Z,2.55
2023-05-08T01:10:52.034Z,2.87
2023-05-08T01:13:32.802Z,2.73
2023-05-08T01:16:12.241Z,2.78
2023-05-08T01:18:46.036Z,2.45
2023-05-08T01:21:21.988Z,2.70
2023-05-08T01:23:48.973Z,2.85
2023-05-08T01:26:51.856Z,2.77
2023-05-08T01:29:35.504Z,2.42
2023-05-08T01:32:02.821Z,2.72
2023-05-08T01:34:35.519Z,2.47
2023-05-08T01:37:14.973Z,2.45
2023-05-08T01:40:02.580Z,2.93
2023-05-08T01:42:42.134Z,2.75
2023-05-08T01:45:29.163Z,2.65
2023-05-08T01:48:09.178Z,2.72
2023-05-08T01:51:02.576Z,2.60
2023-05-08T01:53:33.216Z,2.60
2023-05-08T01:56:09.715Z,2.70
2023-05-08T01:58:38.465Z,2.80
2023-05-08T02:01:06.219Z,2.80
2023-05-08T02:03:35.316Z,2.80
2023-05-08T02:06:03.135Z,2.77
2023-05-08T02:08:32.015Z,2.67
2023-05-08T02:11:00.721Z,2.60
2023-05-08T02:13:30.350Z,2.80
2023-05-08T02:15:59.425Z,2.75
2023-05-08T02:18:29.885Z,2.37
2023-05-08T02:20:59.444Z,2.30
2023-05-08T02:23:27.841Z,2.60
2023-05-08T02:25:56.317Z,2.80
2023-05-08T02:28:24.709Z,2.35
2023-05-08T02:30:52.840Z,2.27
2023-05-08T02:33:20.883Z,2.30
2023-05-08T02:35:51.173Z,2.62
2023-05-08T02:38:21.567Z,2.30
2023-05-08T02:41:02.242Z,2.28
2023-05-08T02:43:29.555Z,2.20
2023-05-08T02:46:17.736Z,1.92
2023-05-08T02:49:03.649Z,2.08
2023-05-08T02:51:50.307Z,1.80
2023-05-08T02:54:40.093Z,1.90
2023-05-08T02:57:15.721Z,1.70
2023-05-08T02:59:46.900Z,1.90
2023-05-08T03:02:22.426Z,1.98
2023-05-08T03:04:55.563Z,1.90
2023-05-08T03:07:26.138Z,1.90
2023-05-08T03:10:03.808Z,2.03
2023-05-08T03:12:34.079Z,1.40
2023-05-08T03:15:08.722Z,1.83
2023-05-08T03:17:38.031Z,1.48
2023-05-08T03:20:08.416Z,1.30
2023-05-08T03:22:38.911Z,1.37
2023-05-08T03:25:09.257Z,1.60
2023-05-08T03:27:37.522Z,1.60
2023-05-08T03:30:05.588Z,1.40
2023-05-08T03:32:34.612Z,1.70
2023-05-08T03:35:03.869Z,1.40
2023-05-08T03:37:30.846Z,1.52
2023-05-08T03:39:58.014Z,1.50
2023-05-08T03:42:25.539Z,1.02
2023-05-08T03:44:54.068Z,1.08
2023-05-08T03:47:22.149Z,1.03
2023-05-08T03:49:50.312Z,0.77
2023-05-08T03:52:17.264Z,0.90
2023-05-08T03:54:44.654Z,0.90
2023-05-08T03:57:11.678Z,0.93
2023-05-08T03:59:41.557Z,1.17
2023-05-08T04:02:17.537Z,0.90
2023-05-08T04:04:47.315Z,1.10
2023-05-08T04:07:29.004Z,0.90
2023-05-08T04:10:21.701Z,0.80
2023-05-08T04:13:05.551Z,1.20
2023-05-08T04:15:36.736Z,1.00
2023-05-08T04:18:09.820Z,0.90
2023-05-08T04:20:40.565Z,1.00
2023-05-08T04:23:10.036Z,0.93
2023-05-08T04:25:39.017Z,0.70
2023-05-08T04:28:06.171Z,0.80
2023-05-08T04:30:33.432Z,0.73
2023-05-08T04:33:03.851Z,0.75
2023-05-08T04:35:30.790Z,0.75
2023-05-08T04:37:58.907Z,0.73
2023-05-08T04:40:25.920Z,0.50
2023-05-08T04:42:52.893Z,0.70
2023-05-08T04:45:20.055Z,0.50
2023-05-08T04:47:46.998Z,0.52
2023-05-08T04:50:14.018Z,0.50
2023-05-08T04:52:41.474Z,0.60
2023-05-08T04:55:09.092Z,0.60
2023-05-08T04:57:36.205Z,0.80
2023-05-08T05:00:03.556Z,0.60
2023-05-08T05:02:30.576Z,0.40
2023-05-08T05:05:01.458Z,0.90
2023-05-08T05:07:28.426Z,0.50
2023-05-08T05:09:55.377Z,0.40
2023-05-08T05:12:22.290Z,0.70
2023-05-08T05:14:49.194Z,0.50
2023-05-08T05:17:16.041Z,0.70
2023-05-08T05:19:43.054Z,0.57
2023-05-08T05:22:10.203Z,0.57
2023-05-08T05:24:37.081Z,0.60
2023-05-08T05:27:04.674Z,0.80
2023-05-08T05:29:31.655Z,0.62
2023-05-08T05:31:58.675Z,0.50
2023-05-08T05:34:25.772Z,0.60
2023-05-08T05:36:52.589Z,0.80
2023-05-08T05:39:19.561Z,0.70
2023-05-08T05:41:46.621Z,0.60
2023-05-08T05:44:13.693Z,0.90
2023-05-08T05:46:42.719Z,0.75
2023-05-08T05:49:14.383Z,0.62
2023-05-08T05:51:41.785Z,0.80
2023-05-08T05:54:08.768Z,0.50
2023-05-08T05:56:35.724Z,0.40
2023-05-08T05:59:02.908Z,0.40
2023-05-08T06:01:32.454Z,0.35
2023-05-08T06:03:59.638Z,0.50
2023-05-08T06:06:26.994Z,0.60
2023-05-08T06:09:34.154Z,0.40
2023-05-08T06:12:01.362Z,0.35
2023-05-08T06:14:28.692Z,0.40
2023-05-08T06:16:56.081Z,0.40
2023-05-08T06:19:24.614Z,0.55
2023-05-08T06:21:52.336Z,0.40
2023-05-08T06:24:19.363Z,0.30
2023-05-08T06:26:50.865Z,0.40
2023-05-08T06:29:18.241Z,0.40
2023-05-08T06:31:45.337Z,0.30
2023-05-08T06:34:12.802Z,0.30
2023-05-08T06:36:39.864Z,0.50
2023-05-08T06:39:07.666Z,0.40
2023-05-08T06:41:34.709Z,0.40
2023-05-08T06:44:01.613Z,0.40
2023-05-08T06:46:30.066Z,0.40
2023-05-08T06:48:57.183Z,0.43
2023-05-08T06:51:24.170Z,0.30
2023-05-08T06:53:51.101Z,0.43
2023-05-08T06:56:18.079Z,0.37
2023-05-08T06:58:50.802Z,0.40
2023-05-08T07:01:28.137Z,0.30
2023-05-08T07:03:54.991Z,0.30
2023-05-08T07:06:21.904Z,0.30
2023-05-08T07:08:49.595Z,0.30
2023-05-08T07:11:16.559Z,0.60
2023-05-08T07:13:43.632Z,0.30
2023-05-08T07:16:11.106Z,0.30
2023-05-08T07:18:38.401Z,0.40
2023-05-08T07:21:05.341Z,0.37
2023-05-08T07:23:32.437Z,0.43
2023-05-08T07:25:59.561Z,0.30
2023-05-08T07:28:26.737Z,0.40
2023-05-08T07:30:53.722Z,0.20
2023-05-08T07:33:20.924Z,0.30
2023-05-08T07:35:48.431Z,0.30
2023-05-08T07:38:15.475Z,0.20
2023-05-08T07:40:42.818Z,0.25
2023-05-08T07:43:09.893Z,0.30
2023-05-08T07:45:37.249Z,0.20
2023-05-08T07:48:04.480Z,0.20
2023-05-08T07:50:31.675Z,0.30
2023-05-08T07:52:58.921Z,0.20
2023-05-08T07:55:26.155Z,0.40
2023-05-08T07:57:53.432Z,0.20
2023-05-08T08:00:20.775Z,0.30
2023-05-08T08:02:51.278Z,1.02
2023-05-08T08:05:18.604Z,0.37
2023-05-08T08:07:45.847Z,0.40
2023-05-08T08:10:13.055Z,0.35
2023-05-08T08:12:40.081Z,0.40
2023-05-08T08:15:07.868Z,0.32
2023-05-08T08:17:34.898Z,0.35
2023-05-08T08:20:03.309Z,0.40
2023-05-08T08:22:30.909Z,0.45
2023-05-08T08:24:57.875Z,0.40
2023-05-08T08:27:24.757Z,0.30
2023-05-08T08:29:58.586Z,0.30
2023-05-08T08:32:31.771Z,0.30
2023-05-08T08:34:58.806Z,0.40
2023-05-08T08:37:52.398Z,0.43
2023-05-08T08:40:25.314Z,0.43
2023-05-08T08:43:09.354Z,0.20
2023-05-08T08:45:42.751Z,0.50
2023-05-08T08:50:56.402Z,0.30
2023-05-08T08:53:36.359Z,0.30
2023-05-08T08:56:18.729Z,0.37
2023-05-08T08:58:56.901Z,0.20
2023-05-08T09:01:31.183Z,0.40
2023-05-08T09:03:59.992Z,0.40
2023-05-08T09:06:27.879Z,0.60
2023-05-08T09:08:57.116Z,0.40
2023-05-08T09:11:28.376Z,0.40
2023-05-08T09:13:56.099Z,0.30
2023-05-08T09:16:24.257Z,0.60
2023-05-08T09:18:51.719Z,0.50
2023-05-08T09:21:18.998Z,0.60
2023-05-08T09:24:03.638Z,0.53
2023-05-08T09:26:38.453Z,0.40
2023-05-08T09:29:14.355Z,0.30
2023-05-08T09:31:44.547Z,0.43
2023-05-08T09:34:27.091Z,0.60
2023-05-08T09:37:09.961Z,0.50
2023-05-08T09:39:37.114Z,1.67
2023-05-08T09:42:06.058Z,0.40
2023-05-08T09:45:02.713Z,0.40
2023-05-08T09:47:29.796Z,0.77
2023-05-08T09:50:14.915Z,0.50
2023-05-08T09:52:48.019Z,0.40
2023-05-08T09:55:15.321Z,0.50
2023-05-08T09:58:03.461Z,0.60
2023-05-08T10:00:30.664Z,0.47
2023-05-08T10:03:04.325Z,0.70
2023-05-08T10:05:34.622Z,0.47
2023-05-08T10:08:21.290Z,0.88
2023-05-08T10:10:48.719Z,0.47
2023-05-08T10:13:16.103Z,0.50
2023-05-08T10:15:44.686Z,0.40
2023-05-08T10:18:16.230Z,0.50
2023-05-08T10:21:00.747Z,0.60
2023-05-08T10:23:28.999Z,0.50
2023-05-08T10:26:01.948Z,0.50
2023-05-08T10:28:40.765Z,0.50
2023-05-08T10:31:11.784Z,0.40
2023-05-08T10:33:41.212Z,0.50
2023-05-08T10:36:10.079Z,0.60
2023-05-08T10:38:38.033Z,0.57
2023-05-08T10:41:05.627Z,0.30
2023-05-08T10:43:33.606Z,0.50
2023-05-08T10:46:08.427Z,0.50
2023-05-08T10:48:56.169Z,0.40
2023-05-08T10:51:35.333Z,0.57
2023-05-08T10:54:08.899Z,0.50
2023-05-08T10:56:38.310Z,0.60
2023-05-08T10:59:06.337Z,0.50
2023-05-08T11:01:33.477Z,0.50
2023-05-08T11:04:00.710Z,0.50
2023-05-08T11:06:43.089Z,0.50
2023-05-08T11:09:15.723Z,0.65
2023-05-08T11:11:56.299Z,0.60
2023-05-08T11:14:24.233Z,0.65
2023-05-08T11:16:53.941Z,0.40
2023-05-08T11:19:22.601Z,0.53
2023-05-08T11:22:15.261Z,0.50
2023-05-08T11:24:48.716Z,0.80
2023-05-08T11:27:16.390Z,0.73
2023-05-08T11:29:45.209Z,0.90
2023-05-08T11:32:12.361Z,0.67
2023-05-08T11:34:42.182Z,1.12
2023-05-08T11:37:32.684Z,0.75
2023-05-08T11:40:37.988Z,1.00
2023-05-08T11:43:41.658Z,0.75
2023-05-08T11:46:20.793Z,0.60
2023-05-08T11:48:47.972Z,0.70
2023-05-08T11:51:17.831Z,0.70
2023-05-08T11:53:45.320Z,0.60
2023-05-08T11:56:12.495Z,0.70
2023-05-08T11:58:39.694Z,1.03
2023-05-08T12:01:06.969Z,0.93
2023-05-08T12:03:34.449Z,0.50
2023-05-08T12:06:01.752Z,1.12
2023-05-08T12:08:28.907Z,0.70
2023-05-08T12:10:57.416Z,0.80
2023-05-08T12:13:30.209Z,0.70
2023-05-08T12:15:59.671Z,0.70
2023-05-08T12:18:28.506Z,1.10
2023-05-08T12:21:00.838Z,0.60
2023-05-08T12:23:32.575Z,0.53
2023-05-08T12:26:01.040Z,0.43
2023-05-08T12:28:28.392Z,0.50
2023-05-08T12:30:56.538Z,0.80
2023-05-08T12:33:23.970Z,0.70
2023-05-08T12:35:51.096Z,1.37
2023-05-08T12:38:26.641Z,0.68
2023-05-08T12:40:55.799Z,0.60
2023-05-08T12:43:31.823Z,1.20
2023-05-08T12:45:58.892Z,1.45
2023-05-08T12:48:27.178Z,4.17
2023-05-08T12:50:54.640Z,5.05
2023-05-08T12:53:22.366Z,9.88
2023-05-08T12:55:58.053Z,2.15
2023-05-08T12:58:27.203Z,1.70
2023-05-08T13:01:36.579Z,1.50
2023-05-08T13:04:10.472Z,1.20
2023-05-08T13:06:37.472Z,0.73
2023-05-08T13:09:04.543Z,0.65
2023-05-08T13:11:33.449Z,0.70
2023-05-08T13:14:00.793Z,0.77
2023-05-08T13:16:27.732Z,1.20
2023-05-08T13:18:54.887Z,1.10
2023-05-08T13:21:21.814Z,1.25
2023-05-08T13:23:48.802Z,0.85
2023-05-08T13:26:15.880Z,0.83
2023-05-08T13:28:42.882Z,0.60
2023-05-08T13:31:09.921Z,0.70
2023-05-08T13:33:38.402Z,0.70
2023-05-08T13:36:05.935Z,0.60
2023-05-08T13:38:34.630Z,0.70
2023-05-08T13:41:01.620Z,0.73
2023-05-08T13:43:28.733Z,0.60
2023-05-08T13:45:56.018Z,0.77
2023-05-08T13:48:23.058Z,0.70
2023-05-08T13:50:55.825Z,0.70
2023-05-08T13:53:22.726Z,0.98
2023-05-08T13:55:49.762Z,0.98
2023-05-08T13:58:16.835Z,0.50
2023-05-08T14:00:43.815Z,1.20
2023-05-08T14:03:11.012Z,0.70
2023-05-08T14:05:38.016Z,1.30
2023-05-08T14:08:05.147Z,0.68
2023-05-08T14:10:32.209Z,0.57
2023-05-08T14:12:59.398Z,0.70
2023-05-08T14:15:31.764Z,0.80
2023-05-08T14:18:04.148Z,0.52
2023-05-08T14:20:31.157Z,1.27
2023-05-08T14:23:00.069Z,0.80
2023-05-08T14:25:27.441Z,0.80
2023-05-08T14:27:54.509Z,0.70
2023-05-08T14:30:21.545Z,0.82
2023-05-08T14:32:48.820Z,0.90
2023-05-08T14:35:16.492Z,0.60
2023-05-08T14:37:43.466Z,0.95
2023-05-08T14:40:10.687Z,0.70
2023-05-08T14:42:38.612Z,0.68
2023-05-08T14:45:06.196Z,0.70
2023-05-08T14:47:33.928Z,0.60
2023-05-08T14:50:00.978Z,0.90
2023-05-08T14:52:28.074Z,0.70
2023-05-08T14:54:55.154Z,0.93
2023-05-08T14:57:22.122Z,5.12
2023-05-08T14:59:55.142Z,0.80
2023-05-08T15:02:23.889Z,0.75
2023-05-08T15:04:51.060Z,0.83
2023-05-08T15:07:18.060Z,0.80
2023-05-08T15:09:45.038Z,0.80
2023-05-08T15:12:12.374Z,1.23
2023-05-08T15:14:39.312Z,0.95
2023-05-08T15:17:06.298Z,0.90
2023-05-08T15:19:33.241Z,0.75
2023-05-08T15:22:00.624Z,0.80
2023-05-08T15:24:27.626Z,0.85
2023-05-08T15:26:54.707Z,0.90
2023-05-08T15:29:22.073Z,0.60
2023-05-08T15:31:49.397Z,1.10
2023-05-08T15:34:16.546Z,0.90
2023-05-08T15:36:43.517Z,0.70
2023-05-08T15:39:10.933Z,0.70
2023-05-08T15:41:39.817Z,0.80
2023-05-08T15:44:08.020Z,0.80
2023-05-08T15:46:35.008Z,0.77
2023-05-08T15:49:03.082Z,0.65
2023-05-08T15:51:30.414Z,0.70
2023-05-08T15:53:57.918Z,0.63
2023-05-08T15:56:25.976Z,0.85
2023-05-08T15:58:53.720Z,0.93
2023-05-08T16:01:20.956Z,0.75
2023-05-08T16:03:47.921Z,0.80
2023-05-08T16:06:14.757Z,0.80
2023-05-08T16:08:41.703Z,0.77
2023-05-08T16:11:08.701Z,0.70
2023-05-08T16:13:35.707Z,0.70
2023-05-08T16:16:06.049Z,0.70
2023-05-08T16:18:33.180Z,0.77
2023-05-08T16:21:00.372Z,0.75
2023-05-08T16:23:27.471Z,0.70
2023-05-08T16:25:54.413Z,0.70
2023-05-08T16:28:21.417Z,0.82
2023-05-08T16:30:48.382Z,0.90
2023-05-08T16:33:15.556Z,1.20
2023-05-08T16:35:42.664Z,0.80
2023-05-08T16:38:09.715Z,0.60
2023-05-08T16:40:36.600Z,1.00
2023-05-08T16:43:03.558Z,0.93
2023-05-08T16:45:30.960Z,0.95
2023-05-08T16:47:58.488Z,1.00
2023-05-08T16:50:25.620Z,1.00
2023-05-08T16:52:52.541Z,1.00
2023-05-08T16:55:19.711Z,1.00
2023-05-08T16:57:46.730Z,1.00
2023-05-08T17:00:14.148Z,1.02
2023-05-08T17:02:41.505Z,1.20
2023-05-08T17:05:09.038Z,1.20
2023-05-08T17:07:36.077Z,1.20
2023-05-08T17:10:03.199Z,1.30
2023-05-08T17:12:30.413Z,1.50
2023-05-08T17:14:57.281Z,1.05
2023-05-08T17:17:24.218Z,1.00
2023-05-08T17:19:51.233Z,1.10
2023-05-08T17:22:20.552Z,1.15
2023-05-08T17:24:47.772Z,0.93
2023-05-08T17:27:14.696Z,1.08
2023-05-08T17:29:41.704Z,1.10
2023-05-08T17:32:08.613Z,1.00
2023-05-08T17:34:35.631Z,1.10
2023-05-08T17:37:02.577Z,0.93
2023-05-08T17:39:29.600Z,1.10
2023-05-08T17:41:56.716Z,1.40
2023-05-08T17:44:23.941Z,1.20
2023-05-08T17:46:50.949Z,1.37
2023-05-08T17:49:19.427Z,1.98
2023-05-08T17:51:46.776Z,1.70
2023-05-08T17:54:13.892Z,1.50
2023-05-08T17:56:40.892Z,1.73
2023-05-08T17:59:07.775Z,1.60
2023-05-08T18:01:34.726Z,1.70
2023-05-08T18:04:01.817Z,1.70
2023-05-08T18:06:28.828Z,1.48
2023-05-08T18:08:56.098Z,1.43
2023-05-08T18:11:25.430Z,1.48
2023-05-08T18:13:53.328Z,1.30
2023-05-08T18:16:21.383Z,1.60
2023-05-08T18:18:49.583Z,1.50
2023-05-08T18:21:16.699Z,1.83
2023-05-08T18:23:44.058Z,1.30
2023-05-08T18:26:15.292Z,1.35
2023-05-08T18:28:43.821Z,1.70
2023-05-08T18:31:11.932Z,1.60
2023-05-08T18:33:39.261Z,1.87
2023-05-08T18:36:07.309Z,1.73
2023-05-08T18:38:34.972Z,1.80
2023-05-08T18:41:03.350Z,1.95
2023-05-08T18:43:30.404Z,2.10
2023-05-08T18:45:58.152Z,1.73
2023-05-08T18:48:26.182Z,1.90
2023-05-08T18:50:54.320Z,1.37
2023-05-08T18:53:21.855Z,1.73
2023-05-08T18:55:48.944Z,1.73
2023-05-08T18:58:16.395Z,2.13
2023-05-08T19:00:46.941Z,1.70
2023-05-08T19:03:14.421Z,2.20
2023-05-08T19:05:42.274Z,1.95
2023-05-08T19:08:09.670Z,1.85
2023-05-08T19:10:36.666Z,1.60
2023-05-08T19:13:03.763Z,1.85
2023-05-08T19:15:30.815Z,1.73
2023-05-08T19:17:57.970Z,1.75
2023-05-08T19:20:25.542Z,2.05
2023-05-08T19:22:52.909Z,1.67
2023-05-08T19:25:20.342Z,1.60
2023-05-08T19:27:48.126Z,1.80
2023-05-08T19:30:15.537Z,1.55
2023-05-08T19:32:42.970Z,2.22
2023-05-08T19:35:10.134Z,1.80
2023-05-08T19:37:38.115Z,1.92
2023-05-08T19:40:06.797Z,1.50
2023-05-08T19:42:33.908Z,1.83
2023-05-08T19:45:01.418Z,1.48
2023-05-08T19:47:28.460Z,1.70
2023-05-08T19:49:55.577Z,1.62
2023-05-08T19:52:22.587Z,1.70
2023-05-08T19:54:49.553Z,1.50
2023-05-08T19:57:16.536Z,1.27
2023-05-08T19:59:43.486Z,1.70
2023-05-08T20:02:10.575Z,1.30
2023-05-08T20:04:54.504Z,1.42
2023-05-08T20:07:24.556Z,1.65
2023-05-08T20:09:51.437Z,1.80
2023-05-08T20:12:18.527Z,1.40
2023-05-08T20:14:45.618Z,1.50
2023-05-08T20:17:12.728Z,1.50
2023-05-08T20:19:39.743Z,1.60
2023-05-08T20:22:06.922Z,1.30
2023-05-08T20:24:33.870Z,1.33
2023-05-08T20:27:00.784Z,1.77
2023-05-08T20:29:28.056Z,1.55
2023-05-08T20:31:55.062Z,1.45
2023-05-08T20:34:22.279Z,1.70
2023-05-08T20:36:49.298Z,1.90
2023-05-08T20:39:16.350Z,1.83
2023-05-08T20:41:43.304Z,2.03
2023-05-08T20:44:12.412Z,1.73
2023-05-08T20:46:40.909Z,1.77
2023-05-08T20:49:07.900Z,2.03
2023-05-08T20:51:36.425Z,1.87
2023-05-08T20:54:03.667Z,1.80
2023-05-08T20:56:30.685Z,1.87
2023-05-08T20:58:57.678Z,1.65
2023-05-08T21:01:24.744Z,1.70
2023-05-08T21:03:51.677Z,1.70
2023-05-08T21:06:18.633Z,1.73
2023-05-08T21:08:45.653Z,1.60
2023-05-08T21:11:13.005Z,1.95
2023-05-08T21:13:40.054Z,1.50
2023-05-08T21:16:08.431Z,1.52
2023-05-08T21:18:35.508Z,1.60
2023-05-08T21:21:02.895Z,1.50
2023-05-08T21:23:31.235Z,1.50
2023-05-08T21:25:58.234Z,1.60
2023-05-08T21:28:25.085Z,1.42
2023-05-08T21:30:52.054Z,1.25
2023-05-08T21:33:19.076Z,1.60
2023-05-08T21:35:46.855Z,1.42
2023-05-08T21:38:13.900Z,1.53
2023-05-08T21:40:40.959Z,1.40
2023-05-08T21:43:07.995Z,1.42
2023-05-08T21:45:35.240Z,1.30
2023-05-08T21:48:02.543Z,1.30
2023-05-08T21:50:29.568Z,1.70
2023-05-08T21:52:56.838Z,1.25
2023-05-08T21:55:24.181Z,1.90
2023-05-08T21:57:51.494Z,1.67
2023-05-08T22:00:19.114Z,1.85
2023-05-08T22:02:46.440Z,1.37
2023-05-08T22:05:13.613Z,1.70
2023-05-08T22:07:41.436Z,1.70
2023-05-08T22:10:09.475Z,1.30
2023-05-08T22:12:36.422Z,1.55
2023-05-08T22:15:09.329Z,1.60
2023-05-08T22:17:40.297Z,1.50
2023-05-08T22:20:08.832Z,1.55
2023-05-08T22:22:35.772Z,1.52
2023-05-08T22:25:02.733Z,1.85
2023-05-08T22:27:29.727Z,1.60
2023-05-08T22:29:56.712Z,1.50
2023-05-08T22:32:24.494Z,1.45
2023-05-08T22:34:51.540Z,1.60
2023-05-08T22:37:18.803Z,1.67
2023-05-08T22:39:45.728Z,1.90
2023-05-08T22:42:12.781Z,1.65
2023-05-08T22:44:39.937Z,1.70
2023-05-08T22:47:07.099Z,1.87
2023-05-08T22:49:34.275Z,1.92
2023-05-08T22:52:01.243Z,1.87
2023-05-08T22:54:28.070Z,1.58
2023-05-08T22:56:54.934Z,1.73
2023-05-08T22:59:22.708Z,1.70
2023-05-08T23:01:49.639Z,1.70
2023-05-08T23:04:16.603Z,1.97
2023-05-08T23:06:43.524Z,1.70
2023-05-08T23:09:10.522Z,1.70
2023-05-08T23:11:37.533Z,1.83
2023-05-08T23:14:04.343Z,1.80
2023-05-08T23:16:31.265Z,1.67
2023-05-08T23:18:58.220Z,1.60
2023-05-08T23:21:25.151Z,1.70
2023-05-08T23:23:52.903Z,1.90
2023-05-08T23:26:19.829Z,1.60
2023-05-08T23:28:46.760Z,1.80
2023-05-08T23:31:13.612Z,2.00
2023-05-08T23:33:40.667Z,1.70
2023-05-08T23:36:08.073Z,1.80
2023-05-08T23:38:34.912Z,1.52
2023-05-08T23:41:01.851Z,1.73
2023-05-08T23:43:28.758Z,1.62
2023-05-08T23:45:55.764Z,1.80
2023-05-08T23:48:23.759Z,1.70
2023-05-08T23:50:50.736Z,1.70
2023-05-08T23:53:17.711Z,1.70
2023-05-08T23:55:44.678Z,1.87
2023-05-08T23:58:11.670Z,1.92
